createdAt,value
2023-03-18T00:00:03.695Z,7.19
2023-03-18T00:01:03.423Z,7.13
2023-03-18T00:02:03.416Z,7.18
2023-03-18T00:03:03.771Z,7.18
2023-03-18T00:04:03.847Z,7.22
2023-03-18T00:05:03.624Z,7.23
2023-03-18T00:06:03.599Z,7.16
2023-03-18T00:07:03.604Z,7.21
2023-03-18T00:08:03.568Z,7.16
2023-03-18T00:09:03.551Z,7.15
2023-03-18T00:10:03.565Z,7.19
2023-03-18T00:11:03.415Z,7.13
2023-03-18T00:12:03.278Z,7.16
2023-03-18T00:13:03.617Z,7.05
2023-03-18T00:14:03.519Z,7.05
2023-03-18T00:15:03.667Z,7.21
2023-03-18T00:16:03.650Z,7.04
2023-03-18T00:17:03.471Z,7.03
2023-03-18T00:18:03.205Z,7
2023-03-18T00:19:03.147Z,7.01
2023-03-18T00:20:03.390Z,7.09
2023-03-18T00:21:03.128Z,7.05
2023-03-18T00:22:03.366Z,7.05
2023-03-18T00:23:03.079Z,7
2023-03-18T00:24:03.341Z,7.04
2023-03-18T00:25:03.079Z,7.04
2023-03-18T00:26:03.328Z,7.05
2023-03-18T00:27:02.767Z,7.05
2023-03-18T00:28:03.006Z,7.16
2023-03-18T00:29:03.315Z,7.05
2023-03-18T00:30:03.262Z,7.13
2023-03-18T00:31:03.219Z,7.11
2023-03-18T00:32:02.954Z,7.18
2023-03-18T00:33:03.428Z,7.11
2023-03-18T00:34:03.185Z,7.21
2023-03-18T00:35:02.914Z,7.23
2023-03-18T00:36:03.363Z,7.18
2023-03-18T00:37:02.864Z,7.18
2023-03-18T00:38:03.108Z,7.15
2023-03-18T00:39:02.845Z,7.18
2023-03-18T00:40:03.073Z,7.12
2023-03-18T00:41:02.812Z,7.11
2023-03-18T00:42:02.847Z,7.15
2023-03-18T00:43:03.030Z,7.12
2023-03-18T00:44:02.511Z,7.13
2023-03-18T00:45:03.051Z,7.15
2023-03-18T00:46:03.006Z,7.16
2023-03-18T00:47:03.194Z,7.18
2023-03-18T00:48:02.689Z,7.13
2023-03-18T00:49:02.717Z,7.13
2023-03-18T00:50:02.671Z,7.04
2023-03-18T00:51:02.901Z,7
2023-03-18T00:52:02.643Z,7.12
2023-03-18T00:53:02.348Z,7.04
2023-03-18T00:54:02.872Z,7
2023-03-18T00:55:02.597Z,6.98
2023-03-18T00:56:02.554Z,7.01
2023-03-18T00:57:02.682Z,6.97
2023-03-18T00:58:02.565Z,6.95
2023-03-18T00:59:02.544Z,6.97
2023-03-18T01:00:03.005Z,7.01
2023-03-18T01:01:03.253Z,6.98
2023-03-18T01:02:03.284Z,6.97
2023-03-18T01:03:02.714Z,7.03
2023-03-18T01:04:02.961Z,6.95
2023-03-18T01:05:02.957Z,7.08
2023-03-18T01:06:02.674Z,7.01
2023-03-18T01:07:02.926Z,6.98
2023-03-18T01:08:02.909Z,7
2023-03-18T01:09:02.679Z,7.01
2023-03-18T01:10:02.875Z,7.08
2023-03-18T01:11:02.845Z,6.86
2023-03-18T01:12:02.837Z,6.95
2023-03-18T01:13:02.839Z,6.95
2023-03-18T01:14:02.574Z,6.86
2023-03-18T01:15:02.792Z,6.86
2023-03-18T01:16:02.952Z,6.88
2023-03-18T01:17:02.821Z,6.95
2023-03-18T01:18:02.514Z,6.94
2023-03-18T01:19:02.527Z,6.94
2023-03-18T01:20:02.198Z,6.9
2023-03-18T01:21:02.434Z,7.01
2023-03-18T01:22:02.873Z,6.97
2023-03-18T01:23:02.847Z,6.93
2023-03-18T01:24:02.835Z,6.93
2023-03-18T01:25:02.850Z,7
2023-03-18T01:26:02.564Z,7.01
2023-03-18T01:27:02.785Z,7
2023-03-18T01:28:02.773Z,7.01
2023-03-18T01:29:02.537Z,7.01
2023-03-18T01:30:02.267Z,7.01
2023-03-18T01:31:02.254Z,7.01
2023-03-18T01:32:03.084Z,6.97
2023-03-18T01:33:02.959Z,6.98
2023-03-18T01:34:02.697Z,7.03
2023-03-18T01:35:02.221Z,7.03
2023-03-18T01:36:02.875Z,7
2023-03-18T01:37:02.383Z,6.98
2023-03-18T01:38:02.904Z,6.93
2023-03-18T01:39:02.616Z,6.91
2023-03-18T01:40:02.320Z,6.86
2023-03-18T01:41:02.321Z,6.82
2023-03-18T01:42:02.068Z,6.82
2023-03-18T01:43:02.556Z,6.8
2023-03-18T01:44:02.274Z,6.82
2023-03-18T01:45:02.501Z,6.79
2023-03-18T01:46:02.402Z,6.79
2023-03-18T01:47:02.524Z,6.73
2023-03-18T01:48:02.237Z,6.83
2023-03-18T01:49:02.239Z,6.72
2023-03-18T01:50:02.539Z,6.75
2023-03-18T01:51:02.160Z,6.72
2023-03-18T01:52:02.447Z,6.68
2023-03-18T01:53:02.121Z,6.57
2023-03-18T01:54:02.102Z,6.64
2023-03-18T01:55:02.112Z,6.57
2023-03-18T01:56:01.827Z,6.54
2023-03-18T01:57:02.328Z,6.6
2023-03-18T01:58:02.304Z,6.58
2023-03-18T01:59:01.859Z,6.55
2023-03-18T02:00:02.025Z,6.57
2023-03-18T02:01:02.359Z,6.6
2023-03-18T02:02:01.989Z,6.57
2023-03-18T02:03:02.229Z,6.55
2023-03-18T02:04:02.209Z,6.52
2023-03-18T02:05:02.237Z,6.49
2023-03-18T02:06:02.195Z,6.47
2023-03-18T02:07:01.933Z,6.49
2023-03-18T02:08:01.887Z,6.54
2023-03-18T02:09:02.135Z,6.51
2023-03-18T02:10:01.602Z,6.44
2023-03-18T02:11:02.114Z,6.4
2023-03-18T02:12:02.101Z,6.44
2023-03-18T02:13:01.803Z,6.49
2023-03-18T02:14:01.802Z,6.47
2023-03-18T02:15:01.780Z,6.49
2023-03-18T02:16:02.128Z,6.55
2023-03-18T02:17:02.327Z,6.57
2023-03-18T02:18:01.982Z,6.54
2023-03-18T02:19:01.960Z,6.54
2023-03-18T02:20:01.946Z,6.55
2023-03-18T02:21:02.146Z,6.51
2023-03-18T02:22:01.686Z,6.51
2023-03-18T02:23:01.649Z,6.47
2023-03-18T02:24:01.657Z,6.49
2023-03-18T02:25:01.883Z,6.43
2023-03-18T02:26:01.600Z,6.55
2023-03-18T02:27:02.739Z,6.42
2023-03-18T02:28:02.697Z,6.47
2023-03-18T02:29:02.743Z,6.47
2023-03-18T02:31:02.372Z,6.43
2023-03-18T02:32:02.635Z,6.4
2023-03-18T02:33:02.598Z,6.39
2023-03-18T02:34:02.605Z,6.44
2023-03-18T02:35:02.599Z,6.43
2023-03-18T02:36:02.714Z,6.46
2023-03-18T02:37:02.638Z,6.46
2023-03-18T02:38:02.570Z,6.42
2023-03-18T02:39:02.558Z,6.37
2023-03-18T02:40:02.542Z,6.42
2023-03-18T02:41:02.503Z,6.37
2023-03-18T02:42:02.263Z,6.37
2023-03-18T02:43:02.473Z,6.21
2023-03-18T02:44:02.481Z,6.36
2023-03-18T02:45:02.542Z,6.4
2023-03-18T02:46:02.018Z,6.37
2023-03-18T02:47:01.917Z,6.37
2023-03-18T02:48:02.469Z,6.39
2023-03-18T02:49:02.134Z,6.26
2023-03-18T02:50:01.857Z,6.4
2023-03-18T02:51:02.364Z,6.28
2023-03-18T02:52:02.316Z,6.44
2023-03-18T02:53:02.108Z,6.24
2023-03-18T02:54:02.315Z,6.24
2023-03-18T02:55:02.009Z,6.29
2023-03-18T02:56:02.254Z,6.33
2023-03-18T02:57:02.244Z,6.33
2023-03-18T02:58:01.964Z,6.29
2023-03-18T02:59:02.203Z,6.31
2023-03-18T03:00:02.073Z,6.28
2023-03-18T03:01:01.993Z,6.26
2023-03-18T03:02:01.916Z,6.29
2023-03-18T03:03:02.664Z,6.28
2023-03-18T03:04:01.619Z,6.21
2023-03-18T03:05:02.141Z,6.17
2023-03-18T03:06:02.095Z,6.2
2023-03-18T03:07:02.088Z,6.28
2023-03-18T03:08:02.088Z,6.24
2023-03-18T03:09:01.845Z,6.17
2023-03-18T03:10:02.053Z,6.21
2023-03-18T03:11:01.513Z,6.21
2023-03-18T03:12:01.754Z,6.15
2023-03-18T03:13:01.734Z,6.1
2023-03-18T03:14:01.965Z,6.17
2023-03-18T03:15:01.952Z,6.13
2023-03-18T03:16:02.265Z,6.2
2023-03-18T03:17:01.933Z,6.17
2023-03-18T03:18:01.690Z,6.17
2023-03-18T03:19:01.660Z,6.09
2023-03-18T03:20:01.363Z,6.1
2023-03-18T03:21:01.603Z,6.17
2023-03-18T03:22:01.593Z,6.1
2023-03-18T03:23:01.570Z,6.1
2023-03-18T03:24:01.813Z,6.03
2023-03-18T03:25:01.592Z,6.05
2023-03-18T03:26:01.597Z,6
2023-03-18T03:27:01.768Z,5.99
2023-03-18T03:28:01.755Z,5.96
2023-03-18T03:29:01.515Z,5.99
2023-03-18T03:30:01.469Z,5.92
2023-03-18T03:31:01.628Z,6.03
2023-03-18T03:32:01.721Z,5.91
2023-03-18T03:33:01.368Z,5.91
2023-03-18T03:34:01.672Z,6
2023-03-18T03:35:01.378Z,5.96
2023-03-18T03:36:01.484Z,5.84
2023-03-18T03:37:01.366Z,5.89
2023-03-18T03:38:01.602Z,5.84
2023-03-18T03:39:01.316Z,5.92
2023-03-18T03:40:01.545Z,5.88
2023-03-18T03:41:01.613Z,5.98
2023-03-18T03:42:01.559Z,6
2023-03-18T03:43:01.013Z,5.88
2023-03-18T03:44:01.513Z,5.95
2023-03-18T03:45:01.216Z,5.89
2023-03-18T03:46:01.258Z,5.85
2023-03-18T03:47:01.190Z,5.87
2023-03-18T03:48:01.170Z,5.87
2023-03-18T03:49:01.163Z,5.88
2023-03-18T03:50:01.383Z,5.81
2023-03-18T03:51:01.386Z,5.8
2023-03-18T03:52:00.865Z,5.73
2023-03-18T03:53:01.096Z,5.75
2023-03-18T03:54:01.064Z,5.75
2023-03-18T03:55:01.330Z,5.81
2023-03-18T03:56:03.701Z,5.78
2023-03-18T03:57:01.463Z,5.75
2023-03-18T03:58:01.338Z,5.75
2023-03-18T03:59:01.014Z,5.7
2023-03-18T04:00:01.259Z,5.77
2023-03-18T04:01:00.995Z,5.73
2023-03-18T04:02:00.707Z,5.7
2023-03-18T04:03:01.404Z,5.78
2023-03-18T04:04:01.089Z,5.75
2023-03-18T04:05:01.138Z,5.8
2023-03-18T04:06:00.898Z,5.73
2023-03-18T04:07:01.127Z,5.75
2023-03-18T04:08:01.098Z,5.8
2023-03-18T04:09:01.080Z,5.72
2023-03-18T04:10:01.066Z,5.81
2023-03-18T04:11:01.039Z,5.8
2023-03-18T04:12:01.043Z,5.85
2023-03-18T04:13:00.811Z,5.81
2023-03-18T04:14:01.030Z,5.85
2023-03-18T04:15:00.999Z,5.84
2023-03-18T04:16:01.874Z,5.84
2023-03-18T04:17:01.184Z,5.81
2023-03-18T04:18:01.664Z,5.81
2023-03-18T04:19:01.426Z,5.84
2023-03-18T04:20:01.633Z,5.72
2023-03-18T04:21:01.619Z,5.8
2023-03-18T04:22:01.636Z,5.77
2023-03-18T04:23:01.326Z,5.8
2023-03-18T04:24:01.314Z,5.81
2023-03-18T04:25:01.306Z,5.82
2023-03-18T04:26:01.558Z,5.87
2023-03-18T04:27:01.015Z,5.82
2023-03-18T04:28:01.510Z,5.82
2023-03-18T04:29:01.527Z,5.87
2023-03-18T04:46:30.784Z,5.75
2023-03-18T04:47:30.566Z,5.73
2023-03-18T04:48:30.555Z,5.63
2023-03-18T04:49:30.536Z,5.66
2023-03-18T04:50:30.663Z,5.66
2023-03-18T04:51:30.255Z,5.63
2023-03-18T04:52:30.214Z,5.59
2023-03-18T04:53:30.481Z,5.63
2023-03-18T04:54:30.578Z,5.66
2023-03-18T04:55:30.333Z,5.62
2023-03-18T04:56:30.409Z,5.66
2023-03-18T04:57:30.119Z,5.66
2023-03-18T04:58:30.372Z,5.64
2023-03-18T04:59:30.376Z,5.66
2023-03-18T05:00:30.084Z,5.64
2023-03-18T05:01:30.420Z,5.63
2023-03-18T05:02:30.383Z,5.6
2023-03-18T05:03:30.099Z,5.64
2023-03-18T05:04:30.005Z,5.66
2023-03-18T05:05:30.439Z,5.66
2023-03-18T05:06:30.225Z,5.62
2023-03-18T05:07:30.213Z,5.66
2023-03-18T05:08:29.969Z,5.66
2023-03-18T05:09:29.673Z,5.66
2023-03-18T05:10:30.167Z,5.66
2023-03-18T05:11:29.661Z,5.73
2023-03-18T05:12:30.137Z,5.75
2023-03-18T05:13:29.850Z,5.77
2023-03-18T05:14:29.843Z,5.82
2023-03-18T05:15:30.322Z,5.78
2023-03-18T05:16:30.299Z,5.82
2023-03-18T05:17:29.784Z,5.89
2023-03-18T05:18:30.103Z,5.95
2023-03-18T05:19:30.015Z,5.89
2023-03-18T05:20:29.992Z,5.98
2023-03-18T05:21:32.826Z,5.85
2023-03-18T05:22:30.010Z,5.99
2023-03-18T05:23:29.957Z,5.96
2023-03-18T05:24:30.040Z,6.02
2023-03-18T05:25:29.863Z,6.06
2023-03-18T05:26:29.666Z,6.05
2023-03-18T05:27:29.863Z,6.09
2023-03-18T05:28:29.886Z,6.1
2023-03-18T05:29:29.603Z,6.17
2023-03-18T05:30:29.568Z,6.24
2023-03-18T05:31:29.811Z,6.28
2023-03-18T05:32:29.655Z,6.17
2023-03-18T05:33:29.796Z,6.2
2023-03-18T05:34:29.963Z,6.34
2023-03-18T05:35:30.270Z,6.29
2023-03-18T05:36:29.763Z,6.31
2023-03-18T05:37:29.730Z,6.33
2023-03-18T05:38:29.493Z,6.33
2023-03-18T05:39:29.689Z,6.4
2023-03-18T05:40:29.410Z,6.43
2023-03-18T05:41:29.418Z,6.39
2023-03-18T05:42:29.703Z,6.43
2023-03-18T05:43:29.641Z,6.52
2023-03-18T05:44:29.107Z,6.61
2023-03-18T05:45:29.742Z,6.52
2023-03-18T05:46:29.596Z,6.54
2023-03-18T05:47:29.580Z,6.62
2023-03-18T05:48:29.289Z,6.61
2023-03-18T05:49:29.275Z,6.57
2023-03-18T05:50:29.586Z,6.7
2023-03-18T05:51:29.507Z,6.68
2023-03-18T05:52:29.499Z,6.83
2023-03-18T05:53:29.482Z,6.76
2023-03-18T05:54:29.211Z,6.76
2023-03-18T05:55:29.428Z,6.85
2023-03-18T05:56:28.970Z,6.83
2023-03-18T05:57:29.390Z,6.93
2023-03-18T05:58:29.377Z,6.94
2023-03-18T05:59:29.121Z,6.94
2023-03-18T06:00:29.382Z,6.98
2023-03-18T06:01:30.338Z,7.01
2023-03-18T06:02:29.589Z,7.05
2023-03-18T06:03:29.436Z,7.04
2023-03-18T06:04:29.300Z,7.08
2023-03-18T06:05:29.036Z,7.09
2023-03-18T06:06:29.339Z,7.01
2023-03-18T06:07:29.244Z,7.21
2023-03-18T06:08:29.230Z,7.18
2023-03-18T06:09:28.962Z,7.19
2023-03-18T06:10:29.202Z,7.26
2023-03-18T06:11:29.184Z,7.27
2023-03-18T06:12:28.661Z,7.39
2023-03-18T06:13:29.208Z,7.39
2023-03-18T06:14:29.160Z,7.39
2023-03-18T06:15:28.681Z,7.52
2023-03-18T06:16:29.042Z,7.55
2023-03-18T06:17:28.882Z,7.51
2023-03-18T06:18:28.843Z,7.55
2023-03-18T06:19:29.068Z,7.67
2023-03-18T06:20:29.064Z,7.59
2023-03-18T06:21:28.776Z,7.67
2023-03-18T06:22:29.196Z,7.61
2023-03-18T06:23:28.760Z,7.74
2023-03-18T06:24:28.737Z,7.74
2023-03-18T06:25:28.723Z,7.74
2023-03-18T06:26:28.706Z,7.78
2023-03-18T06:27:28.427Z,7.77
2023-03-18T06:28:28.951Z,7.82
2023-03-18T06:29:28.677Z,7.83
2023-03-18T06:30:28.916Z,7.88
2023-03-18T06:31:29.136Z,7.88
2023-03-18T06:32:28.645Z,7.98
2023-03-18T06:33:28.597Z,7.93
2023-03-18T06:34:28.830Z,8.01
2023-03-18T06:35:28.558Z,8.07
2023-03-18T06:36:28.300Z,8.1
2023-03-18T06:37:28.816Z,8.17
2023-03-18T06:38:28.844Z,8.21
2023-03-18T06:39:28.532Z,8.22
2023-03-18T06:40:28.784Z,8.29
2023-03-18T06:41:28.745Z,8.22
2023-03-18T06:42:28.712Z,8.29
2023-03-18T06:43:28.451Z,8.21
2023-03-18T06:44:28.187Z,8.34
2023-03-18T06:45:28.417Z,8.36
2023-03-18T06:46:28.630Z,8.36
2023-03-18T06:47:28.387Z,8.35
2023-03-18T06:48:28.377Z,8.34
2023-03-18T06:49:28.641Z,8.35
2023-03-18T06:50:28.619Z,8.29
2023-03-18T06:51:28.605Z,8.35
2023-03-18T06:52:28.592Z,8.36
2023-03-18T06:53:28.573Z,8.34
2023-03-18T06:54:28.644Z,8.35
2023-03-18T06:55:28.567Z,8.32
2023-03-18T06:56:28.286Z,8.42
2023-03-18T06:57:28.518Z,8.44
2023-03-18T06:58:28.481Z,8.4
2023-03-18T06:59:28.472Z,8.44
2023-03-18T07:00:28.640Z,8.34
2023-03-18T07:01:28.283Z,8.34
2023-03-18T07:02:28.309Z,8.22
2023-03-18T07:03:28.162Z,8.34
2023-03-18T07:04:28.580Z,8.32
2023-03-18T07:05:28.394Z,8.26
2023-03-18T07:06:28.370Z,8.17
2023-03-18T07:07:28.129Z,8.29
2023-03-18T07:08:28.363Z,8.26
2023-03-18T07:09:28.325Z,8.28
2023-03-18T07:10:28.381Z,8.32
2023-03-18T07:11:28.067Z,8.29
2023-03-18T07:12:28.274Z,8.34
2023-03-18T07:13:28.012Z,8.47
2023-03-18T07:14:28.264Z,8.44
2023-03-18T07:15:28.271Z,8.6
2023-03-18T07:16:28.214Z,8.61
2023-03-18T07:17:27.959Z,8.67
2023-03-18T07:18:27.686Z,8.64
2023-03-18T07:19:28.207Z,8.74
2023-03-18T07:20:28.173Z,8.71
2023-03-18T07:21:28.363Z,8.89
2023-03-18T07:22:28.145Z,8.95
2023-03-18T07:23:28.125Z,8.94
2023-03-18T07:24:27.857Z,9
2023-03-18T07:25:27.847Z,9.03
2023-03-18T07:26:28.186Z,9.11
2023-03-18T07:27:28.069Z,9.16
2023-03-18T07:28:28.070Z,9.21
2023-03-18T07:29:28.040Z,9.34
2023-03-18T07:30:28.022Z,9.39
2023-03-18T07:31:28.301Z,9.47
2023-03-18T07:32:28.126Z,9.42
2023-03-18T07:33:27.991Z,9.55
2023-03-18T07:34:27.968Z,9.59
2023-03-18T07:35:27.965Z,9.71
2023-03-18T07:36:27.706Z,9.7
2023-03-18T07:37:28.061Z,9.63
2023-03-18T07:38:27.664Z,9.67
2023-03-18T07:39:27.652Z,9.67
2023-03-18T07:40:27.894Z,9.75
2023-03-18T07:41:27.629Z,9.74
2023-03-18T07:42:27.932Z,9.7
2023-03-18T07:43:27.628Z,9.78
2023-03-18T07:44:27.576Z,9.77
2023-03-18T07:45:27.808Z,9.77
2023-03-18T07:46:28.104Z,9.9
2023-03-18T07:47:27.789Z,9.78
2023-03-18T07:48:27.524Z,9.99
2023-03-18T07:49:27.505Z,9.96
2023-03-18T07:50:27.790Z,9.9
2023-03-18T07:51:27.954Z,10.02
2023-03-18T07:52:27.741Z,10.02
2023-03-18T07:53:27.480Z,10.03
2023-03-18T07:54:27.700Z,10.02
2023-03-18T07:55:27.181Z,10.1
2023-03-18T07:56:27.682Z,9.95
2023-03-18T07:57:27.845Z,10.08
2023-03-18T07:58:27.987Z,10.13
2023-03-18T07:59:27.644Z,10.14
2023-03-18T08:00:27.632Z,10.17
2023-03-18T08:01:27.349Z,10.21
2023-03-18T08:02:27.610Z,10.21
2023-03-18T08:03:27.591Z,10.36
2023-03-18T08:04:28.178Z,10.36
2023-03-18T08:05:27.558Z,10.51
2023-03-18T08:06:27.321Z,10.57
2023-03-18T08:07:27.534Z,10.69
2023-03-18T08:08:27.305Z,10.73
2023-03-18T08:09:27.517Z,10.83
2023-03-18T08:10:27.504Z,10.94
2023-03-18T08:11:26.971Z,11.06
2023-03-18T08:12:31.497Z,11.16
2023-03-18T08:13:27.528Z,11.13
2023-03-18T08:14:27.513Z,11.23
2023-03-18T08:15:27.234Z,11.41
2023-03-18T08:16:27.708Z,11.53
2023-03-18T08:17:27.184Z,11.56
2023-03-18T08:18:27.434Z,11.63
2023-03-18T08:19:27.430Z,11.76
2023-03-18T08:20:27.445Z,11.85
2023-03-18T08:21:27.104Z,12.04
2023-03-18T08:22:27.559Z,12.19
2023-03-18T08:23:27.582Z,12.23
2023-03-18T08:24:27.520Z,12.29
2023-03-18T08:25:27.636Z,12.4
2023-03-18T08:26:26.997Z,12.58
2023-03-18T08:27:27.259Z,12.66
2023-03-18T08:28:27.213Z,12.81
2023-03-18T08:29:27.466Z,12.77
2023-03-18T08:30:27.571Z,12.74
2023-03-18T08:31:27.589Z,12.77
2023-03-18T08:32:27.432Z,12.86
2023-03-18T08:33:27.413Z,12.94
2023-03-18T08:34:27.199Z,12.99
2023-03-18T08:35:27.146Z,12.98
2023-03-18T08:36:27.128Z,12.99
2023-03-18T08:37:27.379Z,12.92
2023-03-18T08:38:27.399Z,13.01
2023-03-18T08:39:27.128Z,13.03
2023-03-18T08:40:27.028Z,13.11
2023-03-18T08:41:27.092Z,13.21
2023-03-18T08:42:27.338Z,13.19
2023-03-18T08:43:27.046Z,13.27
2023-03-18T08:44:27.163Z,13.29
2023-03-18T08:45:27.127Z,13.36
2023-03-18T08:46:27.720Z,13.39
2023-03-18T08:47:27.384Z,13.35
2023-03-18T08:48:27.166Z,13.27
2023-03-18T08:49:27.333Z,13.37
2023-03-18T08:50:27.320Z,13.37
2023-03-18T08:51:27.072Z,13.4
2023-03-18T08:52:27.341Z,13.5
2023-03-18T08:53:27.327Z,13.55
2023-03-18T08:54:27.059Z,13.57
2023-03-18T08:55:27.279Z,13.63
2023-03-18T08:56:27.011Z,13.81
2023-03-18T08:57:27.021Z,13.86
2023-03-18T08:58:27.245Z,13.88
2023-03-18T08:59:26.992Z,13.93
2023-03-18T09:00:27.028Z,14.06
2023-03-18T09:01:27.390Z,14.19
2023-03-18T09:02:27.309Z,14.24
2023-03-18T09:03:27.470Z,14.33
2023-03-18T09:04:27.185Z,14.46
2023-03-18T09:05:27.185Z,14.53
2023-03-18T09:06:26.912Z,14.64
2023-03-18T09:07:27.186Z,14.69
2023-03-18T09:08:26.655Z,14.71
2023-03-18T09:09:45.015Z,14.79
2023-03-18T09:10:26.875Z,14.93
2023-03-18T09:11:27.116Z,15
2023-03-18T09:12:26.863Z,15.01
2023-03-18T09:13:27.092Z,15.12
2023-03-18T09:14:26.593Z,15.25
2023-03-18T09:15:27.088Z,15.31
2023-03-18T09:16:27.014Z,15.34
2023-03-18T09:18:04.068Z,15.34
2023-03-18T09:18:27.078Z,15.43
2023-03-18T09:19:26.793Z,15.4
2023-03-18T09:20:27.067Z,15.44
2023-03-18T09:21:26.835Z,15.43
2023-03-18T09:22:27.013Z,15.49
2023-03-18T09:23:27.007Z,15.55
2023-03-18T09:24:26.742Z,15.67
2023-03-18T09:25:26.482Z,15.73
2023-03-18T09:26:27.023Z,15.75
2023-03-18T09:27:26.990Z,15.77
2023-03-18T09:28:26.961Z,15.88
2023-03-18T09:29:26.706Z,15.89
2023-03-18T09:30:26.931Z,15.91
2023-03-18T09:31:26.843Z,15.86
2023-03-18T09:32:26.676Z,15.92
2023-03-18T09:33:26.983Z,15.86
2023-03-18T09:34:26.937Z,15.88
2023-03-18T09:35:26.938Z,15.96
2023-03-18T09:36:26.900Z,15.88
2023-03-18T09:37:26.660Z,15.74
2023-03-18T09:38:26.395Z,15.89
2023-03-18T09:39:26.715Z,15.86
2023-03-18T09:40:26.997Z,15.88
2023-03-18T09:41:26.613Z,15.83
2023-03-18T09:42:26.857Z,15.74
2023-03-18T09:43:26.856Z,15.92
2023-03-18T09:44:26.582Z,15.81
2023-03-18T09:45:26.601Z,15.93
2023-03-18T09:46:27.302Z,15.95
2023-03-18T09:47:26.798Z,15.98
2023-03-18T09:48:26.827Z,16.02
2023-03-18T09:49:26.830Z,15.99
2023-03-18T09:50:27.090Z,15.99
2023-03-18T09:51:26.693Z,16.02
2023-03-18T09:52:26.936Z,15.95
2023-03-18T09:53:26.410Z,15.98
2023-03-18T09:54:26.665Z,15.95
2023-03-18T09:55:26.673Z,16.07
2023-03-18T09:56:26.904Z,16.18
2023-03-18T09:57:28.698Z,16.14
2023-03-18T09:58:26.630Z,16.26
2023-03-18T09:59:26.872Z,16.32
2023-03-18T10:00:26.839Z,16.26
2023-03-18T10:01:27.112Z,16.21
2023-03-18T10:02:26.849Z,16.25
2023-03-18T10:03:26.868Z,16.13
2023-03-18T10:04:26.605Z,16.18
2023-03-18T10:05:26.621Z,16.22
2023-03-18T10:06:26.848Z,16.21
2023-03-18T10:07:26.298Z,16.22
2023-03-18T10:08:26.721Z,16.3
2023-03-18T10:09:26.532Z,16.26
2023-03-18T10:10:26.592Z,16.29
2023-03-18T10:11:26.775Z,16.44
2023-03-18T10:12:26.771Z,16.32
2023-03-18T10:13:26.509Z,16.37
2023-03-18T10:14:26.756Z,16.45
2023-03-18T10:15:26.758Z,16.34
2023-03-18T10:16:27.083Z,16.34
2023-03-18T10:17:26.736Z,16.33
2023-03-18T10:18:26.741Z,16.33
2023-03-18T10:19:26.216Z,16.44
2023-03-18T10:20:26.511Z,16.39
2023-03-18T10:21:26.494Z,16.42
2023-03-18T10:22:26.713Z,16.49
2023-03-18T10:23:26.451Z,16.48
2023-03-18T10:24:26.720Z,16.69
2023-03-18T10:25:26.409Z,16.65
2023-03-18T10:26:26.454Z,16.76
2023-03-18T10:27:26.145Z,16.69
2023-03-18T10:28:26.647Z,16.8
2023-03-18T10:29:26.393Z,16.84
2023-03-18T10:30:26.517Z,16.82
2023-03-18T10:31:26.779Z,16.95
2023-03-18T10:32:31.182Z,16.94
2023-03-18T10:33:26.495Z,16.99
2023-03-18T10:34:26.614Z,17
2023-03-18T10:35:26.608Z,17.05
2023-03-18T10:36:26.598Z,17.03
2023-03-18T10:37:26.632Z,17.09
2023-03-18T10:38:26.344Z,17.09
2023-03-18T10:39:26.562Z,17.17
2023-03-18T10:40:26.417Z,17.25
2023-03-18T10:41:31.271Z,17.13
2023-03-18T10:42:26.294Z,17.2
2023-03-18T10:43:26.558Z,17.21
2023-03-18T10:44:26.282Z,17.28
2023-03-18T10:45:26.266Z,17.27
2023-03-18T10:46:27.138Z,17.38
2023-03-18T10:47:26.680Z,17.38
2023-03-18T10:48:26.255Z,17.25
2023-03-18T10:49:26.253Z,17.25
2023-03-18T10:50:26.571Z,17.2
2023-03-18T10:51:26.480Z,17.09
2023-03-18T10:52:26.475Z,17.07
2023-03-18T10:53:26.532Z,17.12
2023-03-18T10:54:26.491Z,17.02
2023-03-18T10:55:26.474Z,17.09
2023-03-18T10:56:26.190Z,17.12
2023-03-18T10:57:26.184Z,17.09
2023-03-18T10:58:26.182Z,17.06
2023-03-18T10:59:26.432Z,17.03
2023-03-18T11:00:26.165Z,17.06
2023-03-18T11:01:28.082Z,17.06
2023-03-18T11:02:26.344Z,17.03
2023-03-18T11:03:26.400Z,17.09
2023-03-18T11:04:26.278Z,17.07
2023-03-18T11:05:26.388Z,16.92
2023-03-18T11:06:26.115Z,16.92
2023-03-18T11:07:25.943Z,16.88
2023-03-18T11:08:26.360Z,16.9
2023-03-18T11:09:26.195Z,16.91
2023-03-18T11:10:26.120Z,16.8
2023-03-18T11:11:26.340Z,16.87
2023-03-18T11:12:26.342Z,16.72
2023-03-18T11:13:25.811Z,16.69
2023-03-18T11:14:26.316Z,16.7
2023-03-18T11:15:26.316Z,16.66
2023-03-18T11:16:26.098Z,16.51
2023-03-18T11:17:26.346Z,16.62
2023-03-18T11:18:26.325Z,16.55
2023-03-18T11:19:26.900Z,16.63
2023-03-18T11:20:26.294Z,16.62
2023-03-18T11:21:26.263Z,16.69
2023-03-18T11:22:26.268Z,16.69
2023-03-18T11:23:26.252Z,16.77
2023-03-18T11:24:25.986Z,16.77
2023-03-18T11:25:26.083Z,16.76
2023-03-18T11:26:26.008Z,16.7
2023-03-18T11:27:25.978Z,16.69
2023-03-18T11:28:25.968Z,16.57
2023-03-18T11:29:26.221Z,16.63
2023-03-18T11:30:38.711Z,16.55
2023-03-18T11:31:26.292Z,16.51
2023-03-18T11:32:25.936Z,16.44
2023-03-18T11:33:25.926Z,16.62
2023-03-18T11:34:25.915Z,16.63
2023-03-18T11:35:26.007Z,16.66
2023-03-18T11:36:26.194Z,16.59
2023-03-18T11:37:27.998Z,16.57
2023-03-18T11:38:25.878Z,16.59
2023-03-18T11:39:25.882Z,16.69
2023-03-18T11:40:26.024Z,16.69
2023-03-18T11:41:26.176Z,16.74
2023-03-18T11:42:26.153Z,16.76
2023-03-18T11:43:25.864Z,16.77
2023-03-18T11:44:25.836Z,16.57
2023-03-18T11:45:25.938Z,16.62
2023-03-18T11:46:25.922Z,16.39
2023-03-18T11:47:25.826Z,16.26
2023-03-18T11:48:26.060Z,16.34
2023-03-18T11:49:25.813Z,16.32
2023-03-18T11:50:26.083Z,16.25
2023-03-18T11:51:29.056Z,16.29
2023-03-18T11:52:26.042Z,16.32
2023-03-18T11:53:26.116Z,16.3
2023-03-18T11:54:26.023Z,16.34
2023-03-18T11:55:25.768Z,16.29
2023-03-18T11:56:26.025Z,16.18
2023-03-18T11:57:26.068Z,16.26
2023-03-18T11:58:26.031Z,16.32
2023-03-18T11:59:25.985Z,16.25
2023-03-18T12:00:26.718Z,16.27
2023-03-18T12:01:27.095Z,16.25
2023-03-18T12:02:26.963Z,16.3
2023-03-18T12:03:26.951Z,16.27
2023-03-18T12:04:26.676Z,16.16
2023-03-18T12:05:27.056Z,16.21
2023-03-18T12:06:26.944Z,16.18
2023-03-18T12:07:26.694Z,16.21
2023-03-18T12:08:26.665Z,16.22
2023-03-18T12:09:26.894Z,16.22
2023-03-18T12:10:26.900Z,16.27
2023-03-18T12:11:26.631Z,16.22
2023-03-18T12:12:26.370Z,16.26
2023-03-18T12:13:26.910Z,16.25
2023-03-18T12:14:26.885Z,16.27
2023-03-18T12:15:26.868Z,16.21
2023-03-18T12:16:27.034Z,16.22
2023-03-18T12:17:26.596Z,16.25
2023-03-18T12:18:26.828Z,16.14
2023-03-18T12:19:26.313Z,16.26
2023-03-18T12:20:26.814Z,16.25
2023-03-18T12:21:26.573Z,16.33
2023-03-18T12:22:27.038Z,16.27
2023-03-18T12:23:26.764Z,16.26
2023-03-18T12:24:26.759Z,16.29
2023-03-18T12:25:27.010Z,16.27
2023-03-18T12:26:26.733Z,16.36
2023-03-18T12:27:26.988Z,16.29
2023-03-18T12:28:26.726Z,16.26
2023-03-18T12:29:27.034Z,16.33
2023-03-18T12:30:26.737Z,16.42
2023-03-18T12:31:27.059Z,16.33
2023-03-18T12:32:26.707Z,16.25
2023-03-18T12:33:26.693Z,16.36
2023-03-18T12:34:26.696Z,16.34
2023-03-18T12:35:27.122Z,16.34
2023-03-18T12:36:26.946Z,16.27
2023-03-18T12:37:26.937Z,16.29
2023-03-18T12:38:26.665Z,16.25
2023-03-18T12:39:26.651Z,16.3
2023-03-18T12:40:26.950Z,16.34
2023-03-18T12:41:26.632Z,16.27
2023-03-18T12:42:26.371Z,16.26
2023-03-18T12:43:26.637Z,16.29
2023-03-18T12:44:26.881Z,16.29
2023-03-18T12:45:26.931Z,16.32
2023-03-18T12:46:26.773Z,16.3
2023-03-18T12:47:26.841Z,16.29
2023-03-18T12:48:47.107Z,16.22
2023-03-18T12:49:26.572Z,16.27
2023-03-18T12:50:26.858Z,16.29
2023-03-18T12:51:26.804Z,16.14
2023-03-18T12:52:26.837Z,16.06
2023-03-18T12:53:26.561Z,15.83
2023-03-18T12:54:26.535Z,15.74
2023-03-18T12:55:26.779Z,15.73
2023-03-18T12:56:26.519Z,15.89
2023-03-18T12:57:26.752Z,15.84
2023-03-18T12:58:26.768Z,15.83
2023-03-18T12:59:26.738Z,15.99
2023-03-18T13:00:26.994Z,16.04
2023-03-18T13:01:27.208Z,15.93
2023-03-18T13:02:27.009Z,16.04
2023-03-18T13:03:26.726Z,16.1
2023-03-18T13:04:26.453Z,16.21
2023-03-18T13:05:26.698Z,16.14
2023-03-18T13:06:26.444Z,16.11
2023-03-18T13:07:26.805Z,16.22
2023-03-18T13:08:26.413Z,16.16
2023-03-18T13:09:26.189Z,16.25
2023-03-18T13:10:26.450Z,16.3
2023-03-18T13:11:26.396Z,16.29
2023-03-18T13:12:26.652Z,16.26
2023-03-18T13:13:26.631Z,16.29
2023-03-18T13:14:26.423Z,16.26
2023-03-18T13:15:26.626Z,16.26
2023-03-18T13:16:26.426Z,16.32
2023-03-18T13:17:26.653Z,16.33
2023-03-18T13:18:26.359Z,16.29
2023-03-18T13:19:26.603Z,16.27
2023-03-18T13:20:26.586Z,16.25
2023-03-18T13:21:26.327Z,16.25
2023-03-18T13:22:26.323Z,16.29
2023-03-18T13:23:26.547Z,16.26
2023-03-18T13:24:26.297Z,16.22
2023-03-18T13:25:26.547Z,16.18
2023-03-18T13:26:26.028Z,16.22
2023-03-18T13:27:26.529Z,16.17